createdAt,value
2022-09-05T00:00:20.608Z,100030.06
2022-09-05T00:03:31.489Z,100023.84
2022-09-05T00:06:03.446Z,100025.47
2022-09-05T00:09:04.660Z,100023.50
2022-09-05T00:11:47.872Z,100028.06
2022-09-05T00:14:53.185Z,100036.19
2022-09-05T00:18:52.908Z,100032.75
2022-09-05T00:24:19.902Z,100025.75
2022-09-05T00:24:32.506Z,100028.84
2022-09-05T00:26:36.675Z,100034.38
2022-09-05T00:29:42.057Z,100035.19
2022-09-05T00:32:30.958Z,100030.50
2022-09-05T00:35:01.279Z,100039.47
2022-09-05T00:37:51.159Z,100029.38
2022-09-05T00:40:34.106Z,100037.53
2022-09-05T00:43:22.133Z,100032.78
2022-09-05T00:46:04.543Z,100038.53
2022-09-05T00:48:49.943Z,100015.78
2022-09-05T00:51:38.490Z,100037.75
2022-09-05T00:54:40.193Z,100033.66
2022-09-05T00:57:30.793Z,100038.56
2022-09-05T01:00:17.882Z,100048.50
2022-09-05T01:02:59.155Z,100027.47
2022-09-05T01:05:38.413Z,100026.13
2022-09-05T01:08:36.391Z,100031.69
2022-09-05T01:11:32.733Z,100026.13
2022-09-05T01:14:30.855Z,100032.50
2022-09-05T01:17:28.978Z,100035.06
2022-09-05T01:20:19.432Z,100022.50
2022-09-05T01:23:07.278Z,100029.75
2022-09-05T01:26:13.354Z,100043.25
2022-09-05T01:29:17.757Z,100025.75
2022-09-05T01:32:15.715Z,100041.59
2022-09-05T01:35:01.189Z,100045.06
2022-09-05T01:38:06.936Z,100029.84
2022-09-05T01:41:18.021Z,100024.25
2022-09-05T01:43:58.858Z,100035.06
2022-09-05T01:46:35.226Z,100033.66
2022-09-05T01:49:07.739Z,100034.47
2022-09-05T01:51:46.181Z,100016.38
2022-09-05T01:54:30.232Z,100022.25
2022-09-05T01:57:18.265Z,100025.34
2022-09-05T02:00:04.584Z,100006.81
2022-09-05T02:03:07.038Z,100022.34
2022-09-05T02:05:51.864Z,100022.19
2022-09-05T02:08:42.467Z,100009.66
2022-09-05T02:11:14.356Z,100018.94
2022-09-05T02:14:14.538Z,99994.69
2022-09-05T02:16:57.809Z,100014.41
2022-09-05T02:19:30.982Z,100015.22
2022-09-05T02:22:10.335Z,100019.47
2022-09-05T02:24:43.198Z,100017.22
2022-09-05T02:27:47.591Z,100017.03
2022-09-05T02:30:25.531Z,100025.31
2022-09-05T02:33:03.157Z,100018.00
2022-09-05T02:35:36.191Z,100032.16
2022-09-05T02:44:08.067Z,100021.41
2022-09-05T02:45:11.602Z,100031.69
2022-09-05T02:45:25.502Z,100013.75
2022-09-05T02:48:33.528Z,100026.66
2022-09-05T02:57:24.635Z,100017.69
2022-09-05T02:57:34.407Z,100034.50
2022-09-05T02:57:36.181Z,100034.31
2022-09-05T03:00:22.462Z,100037.59
2022-09-05T03:03:01.876Z,100043.94
2022-09-05T03:05:41.613Z,100034.66
2022-09-05T03:08:24.603Z,100037.25
2022-09-05T03:11:29.453Z,100042.78
2022-09-05T03:14:02.638Z,100040.50
2022-09-05T03:17:00.532Z,100047.50
2022-09-05T03:19:33.351Z,100046.34
2022-09-05T03:22:22.466Z,100055.63
2022-09-05T03:25:23.159Z,100048.63
2022-09-05T03:28:08.138Z,100052.88
2022-09-05T03:31:02.996Z,100056.28
2022-09-05T03:33:58.315Z,100061.31
2022-09-05T03:37:07.366Z,100060.34
2022-09-05T03:39:56.213Z,100055.91
2022-09-05T03:42:30.889Z,100062.59
2022-09-05T03:45:01.221Z,100064.69
2022-09-05T03:47:49.026Z,100060.94
2022-09-05T03:57:13.435Z,100082.41
2022-09-05T03:57:13.843Z,100074.41
2022-09-05T03:57:18.607Z,100084.19
2022-09-05T03:59:45.919Z,100082.06
2022-09-05T04:08:07.918Z,100084.97
2022-09-05T04:08:28.209Z,100086.28
2022-09-05T04:08:42.384Z,100087.41
2022-09-05T04:11:22.388Z,100092.81
2022-09-05T04:13:52.202Z,100087.09
2022-09-05T04:16:26.119Z,100077.94
2022-09-05T04:19:11.012Z,100088.53
2022-09-05T04:22:18.514Z,100094.25
2022-09-05T04:25:17.214Z,100100.47
2022-09-05T04:27:55.936Z,100094.28
2022-09-05T04:30:43.500Z,100098.38
2022-09-05T04:33:36.203Z,100096.09
2022-09-05T04:36:26.051Z,100105.88
2022-09-05T04:39:19.095Z,100104.94
2022-09-05T04:42:04.679Z,100110.34
2022-09-05T04:44:48.361Z,100102.38
2022-09-05T04:47:28.694Z,100102.25
2022-09-05T04:49:55.868Z,100099.31
2022-09-05T04:52:57.601Z,100104.38
2022-09-05T04:55:38.713Z,100101.59
2022-09-05T04:58:21.645Z,100097.22
2022-09-05T05:05:58.486Z,100095.75
2022-09-05T05:06:12.235Z,100105.03
2022-09-05T05:06:46.946Z,100101.78
2022-09-05T05:09:25.786Z,100100.00
2022-09-05T05:18:01.917Z,100097.88
2022-09-05T05:18:16.110Z,100110.09
2022-09-05T05:18:39.994Z,100111.72
2022-09-05T05:21:12.473Z,100110.41
2022-09-05T05:23:50.093Z,100114.34
2022-09-05T05:26:29.817Z,100123.63
2022-09-05T05:29:08.539Z,100119.84
2022-09-05T05:31:46.536Z,100117.25
2022-09-05T05:34:26.527Z,100130.44
2022-09-05T05:37:14.842Z,100135.47
2022-09-05T05:39:49.584Z,100131.03
2022-09-05T05:42:26.293Z,100126.44
2022-09-05T05:44:57.227Z,100108.00
2022-09-05T05:47:37.242Z,100129.63
2022-09-05T05:50:33.710Z,100127.91
2022-09-05T05:53:42.742Z,100134.56
2022-09-05T05:56:39.726Z,100144.69
2022-09-05T05:59:25.106Z,100139.59
2022-09-05T06:01:59.082Z,100142.69
2022-09-05T06:05:03.928Z,100143.94
2022-09-05T06:10:44.409Z,100133.50
2022-09-05T06:14:55.595Z,100153.13
2022-09-05T06:14:58.710Z,100154.00
2022-09-05T06:17:37.759Z,100164.38
2022-09-05T06:22:06.807Z,100149.72
2022-09-05T06:23:39.390Z,100169.41
2022-09-05T06:26:19.822Z,100165.75
2022-09-05T06:29:19.245Z,100172.13
2022-09-05T06:32:24.634Z,100171.91
2022-09-05T06:35:14.755Z,100166.59
2022-09-05T06:37:42.128Z,100184.31
2022-09-05T06:40:33.151Z,100188.75
2022-09-05T06:43:27.463Z,100183.25
2022-09-05T06:46:11.184Z,100178.44
2022-09-05T06:49:28.251Z,100180.28
2022-09-05T06:51:45.145Z,100181.56
2022-09-05T06:54:32.631Z,100183.63
2022-09-05T06:57:14.702Z,100196.06
2022-09-05T07:00:00.352Z,100188.41
2022-09-05T07:02:58.993Z,100190.69
2022-09-05T07:05:44.484Z,100183.22
2022-09-05T07:08:34.617Z,100183.31
2022-09-05T07:11:24.517Z,100180.50
2022-09-05T07:14:16.759Z,100184.44
2022-09-05T07:16:53.008Z,100183.94
2022-09-05T07:19:49.871Z,100182.38
2022-09-05T07:22:47.358Z,100181.25
2022-09-05T07:25:20.227Z,100179.34
2022-09-05T07:28:29.330Z,100193.69
2022-09-05T07:30:41.888Z,100183.22
2022-09-05T07:33:09.800Z,100186.22
2022-09-05T07:35:42.193Z,100181.84
2022-09-05T07:38:22.076Z,100191.50
2022-09-05T07:40:58.113Z,100193.94
2022-09-05T07:43:30.780Z,100192.44
2022-09-05T07:46:01.693Z,100193.59
2022-09-05T07:48:34.984Z,100192.97
2022-09-05T07:56:51.426Z,100190.78
2022-09-05T07:57:10.464Z,100191.25
2022-09-05T07:57:22.220Z,100194.41
2022-09-05T07:59:40.824Z,100186.88
2022-09-05T08:02:11.869Z,100193.28
2022-09-05T08:04:42.109Z,100189.97
2022-09-05T08:07:47.203Z,100186.59
2022-09-05T08:10:17.408Z,100176.16
2022-09-05T08:13:23.067Z,100177.06
2022-09-05T08:16:10.215Z,100172.72
2022-09-05T08:18:42.561Z,100180.53
2022-09-05T08:21:14.152Z,100169.34
2022-09-05T08:24:14.192Z,100161.00
2022-09-05T08:27:10.781Z,100181.47
2022-09-05T08:30:24.537Z,100171.47
2022-09-05T08:33:11.209Z,100159.81
2022-09-05T08:35:59.349Z,100166.38
2022-09-05T08:38:40.587Z,100161.59
2022-09-05T08:41:43.180Z,100161.78
2022-09-05T08:46:41.283Z,100171.69
2022-09-05T08:47:44.969Z,100162.88
2022-09-05T08:50:39.742Z,100174.00
2022-09-05T08:53:46.154Z,100168.81
2022-09-05T08:56:20.611Z,100168.16
2022-09-05T08:59:31.965Z,100162.06
2022-09-05T09:02:47.229Z,100166.97
2022-09-05T09:05:59.381Z,100154.38
2022-09-05T09:08:49.237Z,100156.78
2022-09-05T09:11:36.950Z,100142.34
2022-09-05T09:14:45.529Z,100163.56
2022-09-05T09:17:19.013Z,100154.94
2022-09-05T09:20:09.852Z,100150.53
2022-09-05T09:22:42.448Z,100148.38
2022-09-05T09:25:27.115Z,100150.03
2022-09-05T09:28:50.545Z,100148.53
2022-09-05T09:31:26.909Z,100150.47
2022-09-05T09:34:14.668Z,100143.72
2022-09-05T09:37:09.254Z,100141.56
2022-09-05T09:39:54.936Z,100135.41
2022-09-05T09:42:33.741Z,100137.56
2022-09-05T09:45:29.084Z,100129.28
2022-09-05T09:48:30.888Z,100137.56
2022-09-05T09:51:26.994Z,100123.44
2022-09-05T09:54:13.600Z,100123.13
2022-09-05T09:56:59.726Z,100129.50
2022-09-05T09:59:56.792Z,100128.03
2022-09-05T10:07:13.345Z,100121.03
2022-09-05T10:10:35.058Z,100127.25
2022-09-05T10:10:46.048Z,100126.81
2022-09-05T10:12:29.020Z,100134.03
2022-09-05T10:15:30.711Z,100138.09
2022-09-05T10:18:24.511Z,100136.66
2022-09-05T10:21:16.631Z,100137.59
2022-09-05T10:24:32.384Z,100134.69
2022-09-05T10:27:10.526Z,100127.06
2022-09-05T10:29:46.908Z,100138.66
2022-09-05T10:35:07.767Z,100117.09
2022-09-05T10:35:24.481Z,100133.13
2022-09-05T10:37:59.653Z,100130.28
2022-09-05T10:40:39.697Z,100124.50
2022-09-05T10:43:23.241Z,100127.13
2022-09-05T10:46:02.283Z,100125.00
2022-09-05T10:48:41.294Z,100124.00
2022-09-05T10:51:37.619Z,100109.13
2022-09-05T10:54:29.866Z,100118.72
2022-09-05T10:57:38.759Z,100121.94
2022-09-05T11:02:23.584Z,100114.16
2022-09-05T11:03:41.409Z,100105.13
2022-09-05T11:06:15.096Z,100098.03
2022-09-05T11:09:01.879Z,100098.91
2022-09-05T11:11:46.075Z,100096.75
2022-09-05T11:14:35.474Z,100110.88
2022-09-05T11:17:19.562Z,100104.59
2022-09-05T11:20:04.363Z,100091.59
2022-09-05T11:22:40.886Z,100104.69
2022-09-05T11:25:24.519Z,100096.03
2022-09-05T11:28:22.635Z,100091.69
2022-09-05T11:30:54.345Z,100089.41
2022-09-05T11:39:24.018Z,100081.47
2022-09-05T11:39:54.428Z,100097.72
2022-09-05T11:40:28.327Z,100097.44
2022-09-05T11:43:14.401Z,100072.75
2022-09-05T11:46:29.570Z,100076.34
2022-09-05T11:49:34.648Z,100080.28
2022-09-05T11:52:17.277Z,100082.88
2022-09-05T11:55:21.510Z,100071.03
2022-09-05T11:58:45.318Z,100061.84
2022-09-05T12:01:43.469Z,100071.31
2022-09-05T12:04:40.248Z,100061.44
2022-09-05T12:07:37.468Z,100059.88
2022-09-05T12:10:47.674Z,100052.88
2022-09-05T12:13:32.124Z,100041.84
2022-09-05T12:16:08.374Z,100046.41
2022-09-05T12:18:56.744Z,100030.34
2022-09-05T12:22:09.649Z,100046.69
2022-09-05T12:25:27.219Z,100034.63
2022-09-05T12:29:27.430Z,100040.44
2022-09-05T12:32:36.702Z,100043.53
2022-09-05T12:36:05.917Z,100038.38
2022-09-05T12:40:56.097Z,100034.09
2022-09-05T12:41:33.652Z,100035.25
2022-09-05T12:44:36.461Z,100036.16
2022-09-05T12:46:11.828Z,100032.97
2022-09-05T12:48:55.589Z,100028.16
2022-09-05T12:51:46.684Z,100025.88
2022-09-05T12:54:44.293Z,100026.25
2022-09-05T13:00:58.596Z,100022.88
2022-09-05T13:03:08.783Z,100023.00
2022-09-05T13:03:35.534Z,100024.66
2022-09-05T13:06:09.213Z,100021.66
2022-09-05T13:08:59.639Z,100022.66
2022-09-05T13:14:47.956Z,100026.34
2022-09-05T13:14:49.488Z,100022.78
2022-09-05T13:17:27.499Z,100021.56
2022-09-05T13:19:56.094Z,100028.53
2022-09-05T13:22:26.049Z,100014.69
2022-09-05T13:25:16.977Z,100017.84
2022-09-05T13:27:57.029Z,100015.56
2022-09-05T13:34:32.401Z,100011.09
2022-09-05T13:37:58.445Z,100012.91
2022-09-05T13:38:09.899Z,100008.28
2022-09-05T13:39:28.727Z,100017.72
2022-09-05T13:42:03.785Z,100021.44
2022-09-05T13:44:38.846Z,100015.44
2022-09-05T13:47:30.142Z,100015.88
2022-09-05T13:50:41.589Z,100016.25
2022-09-05T13:53:51.483Z,100010.63
2022-09-05T13:56:26.163Z,100015.13
2022-09-05T13:59:04.771Z,100019.41
2022-09-05T14:02:24.749Z,100016.00
2022-09-05T14:05:17.851Z,100013.44
2022-09-05T14:07:46.987Z,100028.56
2022-09-05T14:10:35.931Z,100022.44
2022-09-05T14:13:29.570Z,100021.38
2022-09-05T14:16:08.991Z,100015.44
2022-09-05T14:19:05.138Z,100026.44
2022-09-05T14:21:37.109Z,100011.16
2022-09-05T14:24:12.516Z,100022.13
2022-09-05T14:26:47.891Z,100017.38
2022-09-05T14:29:31.314Z,100027.47
2022-09-05T14:37:40.386Z,100028.97
2022-09-05T14:37:43.461Z,100029.41
2022-09-05T14:38:40.626Z,100031.28
2022-09-05T14:42:07.310Z,100019.75
2022-09-05T14:44:54.416Z,100015.84
2022-09-05T14:48:03.042Z,100003.13
2022-09-05T14:50:51.351Z,100026.59
2022-09-05T14:56:59.741Z,100022.47
2022-09-05T15:02:49.132Z,100015.09
2022-09-05T15:02:51.877Z,100017.13
2022-09-05T15:05:27.567Z,100003.88
2022-09-05T15:08:16.314Z,100001.50
2022-09-05T15:12:21.290Z,100002.38
2022-09-05T15:13:57.912Z,100004.25
2022-09-05T15:16:31.559Z,100000.66
2022-09-05T15:19:00.271Z,100004.53
2022-09-05T15:21:40.612Z,100005.69
2022-09-05T15:24:16.078Z,100002.88
2022-09-05T15:26:53.652Z,99997.22
2022-09-05T15:29:23.620Z,99987.94
2022-09-05T15:31:51.436Z,99998.16
2022-09-05T15:34:32.930Z,100010.19
2022-09-05T15:37:08.924Z,100004.56
2022-09-05T15:39:47.848Z,100007.69
2022-09-05T15:42:26.942Z,99995.91
2022-09-05T15:45:10.793Z,100007.28
2022-09-05T15:47:44.622Z,100001.63
2022-09-05T15:50:22.601Z,99997.84
2022-09-05T15:52:57.694Z,100005.28
2022-09-05T15:55:27.922Z,100008.47
2022-09-05T15:58:01.712Z,100011.16
2022-09-05T16:00:36.484Z,100006.44
2022-09-05T16:04:40.792Z,100002.44
2022-09-05T16:10:33.771Z,99998.91
2022-09-05T16:10:35.150Z,100002.41
2022-09-05T16:12:14.260Z,100003.63
2022-09-05T16:15:16.250Z,99986.94
2022-09-05T16:23:15.488Z,99989.66
2022-09-05T16:23:26.555Z,100005.59
2022-09-05T16:23:48.100Z,100003.78
2022-09-05T16:26:25.661Z,100007.75
2022-09-05T16:29:26.054Z,100012.03
2022-09-05T16:32:02.223Z,100007.41
2022-09-05T16:34:54.890Z,100017.28
2022-09-05T16:37:32.085Z,100013.56
2022-09-05T16:40:15.273Z,100016.59
2022-09-05T16:42:51.574Z,100020.44
2022-09-05T16:45:48.311Z,100020.19
2022-09-05T16:48:34.803Z,100023.25
2022-09-05T16:51:35.330Z,100026.13
2022-09-05T16:54:15.965Z,100026.13
2022-09-05T16:56:54.948Z,100024.34
2022-09-05T16:59:28.494Z,100020.91
2022-09-05T17:02:05.905Z,100036.91
2022-09-05T17:05:05.102Z,100045.16
2022-09-05T17:08:06.623Z,100046.16
2022-09-05T17:10:52.873Z,100047.47
2022-09-05T17:13:37.626Z,100050.84
2022-09-05T17:16:07.234Z,100052.75
2022-09-05T17:18:36.770Z,100061.44
2022-09-05T17:21:11.395Z,100072.94
2022-09-05T17:29:18.726Z,100068.72
2022-09-05T17:29:24.829Z,100062.16
2022-09-05T17:32:48.187Z,100070.38
2022-09-05T17:35:42.704Z,100078.31
2022-09-05T17:38:26.100Z,100083.72
2022-09-05T17:41:31.555Z,100081.91
2022-09-05T17:44:10.521Z,100077.56
2022-09-05T17:46:57.728Z,100088.84
2022-09-05T17:49:46.095Z,100090.59
2022-09-05T17:52:19.123Z,100095.63
2022-09-05T17:55:19.516Z,100087.66
2022-09-05T17:57:48.986Z,100096.31
2022-09-05T18:00:43.821Z,100097.28
2022-09-05T18:03:11.040Z,100082.88
2022-09-05T18:05:58.220Z,100100.06
2022-09-05T18:08:47.184Z,100098.00
2022-09-05T18:11:26.270Z,100099.53
2022-09-05T18:13:55.452Z,100085.84
2022-09-05T18:16:32.037Z,100107.81
2022-09-05T18:19:32.293Z,100108.78
2022-09-05T18:22:11.248Z,100097.22
2022-09-05T18:28:08.850Z,100092.84
2022-09-05T18:30:36.547Z,100084.50
2022-09-05T18:33:55.904Z,100088.38
2022-09-05T18:35:53.951Z,100086.75
2022-09-05T18:38:50.026Z,100080.59
2022-09-05T18:41:28.058Z,100089.91
2022-09-05T18:44:13.699Z,100080.50
2022-09-05T18:46:54.004Z,100083.41
2022-09-05T18:50:24.604Z,100068.78
2022-09-05T18:52:28.023Z,100069.63
2022-09-05T18:55:30.161Z,100075.88
2022-09-05T18:58:07.154Z,100081.22
2022-09-05T19:00:44.540Z,100073.66
2022-09-05T19:03:17.146Z,100082.72
2022-09-05T19:05:54.784Z,100085.03
2022-09-05T19:08:56.306Z,100092.25
2022-09-05T19:11:32.342Z,100089.44
2022-09-05T19:14:26.164Z,100085.47
2022-09-05T19:17:14.132Z,100091.38
2022-09-05T19:20:33.108Z,100090.69
2022-09-05T19:23:13.182Z,100085.47
2022-09-05T19:25:56.421Z,100077.44
2022-09-05T19:36:44.728Z,100079.88
2022-09-05T19:36:51.933Z,100076.34
2022-09-05T19:37:12.357Z,100073.31
2022-09-05T19:37:47.450Z,100069.78
2022-09-05T19:46:35.446Z,100070.47
2022-09-05T19:47:40.244Z,100075.56
2022-09-05T19:47:50.009Z,100069.06
2022-09-05T19:49:07.326Z,100057.13
2022-09-05T19:51:35.859Z,100067.22
2022-09-05T19:54:05.376Z,100065.72
2022-09-05T19:56:39.757Z,100075.81
2022-09-05T19:59:33.969Z,100066.06
2022-09-05T20:02:03.196Z,100067.22
2022-09-05T20:04:36.603Z,100053.66
2022-09-05T20:07:16.431Z,100059.09
2022-09-05T20:09:47.249Z,100068.31
2022-09-05T20:12:24.354Z,100061.78
2022-09-05T20:14:51.997Z,100067.13
2022-09-05T20:17:29.177Z,100052.38
2022-09-05T20:20:16.190Z,100069.72
2022-09-05T20:22:50.583Z,100068.31
2022-09-05T20:25:36.190Z,100085.53
2022-09-05T20:28:25.487Z,100077.03
2022-09-05T20:30:55.974Z,100065.59
2022-09-05T20:33:27.063Z,100072.31
2022-09-05T20:41:17.147Z,100046.72
2022-09-05T20:43:14.982Z,100071.53
2022-09-05T20:43:22.634Z,100064.91
2022-09-05T20:44:48.305Z,100059.66
2022-09-05T20:51:33.186Z,100045.13
2022-09-05T20:54:19.905Z,100044.72
2022-09-05T20:54:21.957Z,100046.63
2022-09-05T20:56:22.715Z,100045.59
2022-09-05T20:58:51.369Z,100047.69
2022-09-05T21:01:23.530Z,100049.50
2022-09-05T21:04:01.232Z,100051.13
2022-09-05T21:06:36.675Z,100052.63
2022-09-05T21:09:26.086Z,100057.34
2022-09-05T21:11:58.863Z,100038.81
2022-09-05T21:14:29.130Z,100026.78
2022-09-05T21:17:14.779Z,100044.06
2022-09-05T21:19:51.579Z,100035.13
2022-09-05T21:22:21.732Z,100039.81
2022-09-05T21:25:15.032Z,100029.41
2022-09-05T21:27:54.347Z,100030.56
2022-09-05T21:30:30.666Z,100057.44
2022-09-05T21:33:18.154Z,100051.88
2022-09-05T21:35:49.006Z,100026.75
2022-09-05T21:38:32.449Z,100022.53
2022-09-05T21:41:02.008Z,100047.88
2022-09-05T21:47:34.867Z,100049.72
2022-09-05T21:47:46.740Z,100065.97
2022-09-05T21:49:07.785Z,100044.44
2022-09-05T21:51:37.474Z,100038.97
2022-09-05T21:57:23.212Z,100047.78
2022-09-05T21:59:18.748Z,100039.63
2022-09-05T21:59:55.657Z,100028.03
2022-09-05T22:02:25.910Z,100032.78
2022-09-05T22:05:02.796Z,100039.63
2022-09-05T22:07:35.695Z,100042.56
2022-09-05T22:10:04.333Z,100045.66
2022-09-05T22:12:36.082Z,100028.66
2022-09-05T22:15:27.898Z,100033.06
2022-09-05T22:18:16.668Z,100036.13
2022-09-05T22:21:12.796Z,100035.31
2022-09-05T22:23:37.210Z,100029.41
2022-09-05T22:26:08.148Z,100026.31
2022-09-05T22:28:48.804Z,100029.09
2022-09-05T22:31:17.909Z,100028.91
2022-09-05T22:33:45.563Z,100034.06
2022-09-05T22:36:19.546Z,100025.72
2022-09-05T22:38:47.731Z,100021.31
2022-09-05T22:41:15.145Z,100025.25
2022-09-05T22:43:42.302Z,100032.78
2022-09-05T22:46:09.618Z,100038.94
2022-09-05T22:48:37.977Z,100027.97
2022-09-05T22:51:05.764Z,100039.75
2022-09-05T22:53:34.507Z,100038.00
2022-09-05T22:56:08.120Z,100045.19
2022-09-05T22:58:41.853Z,100047.50
2022-09-05T23:01:10.157Z,100020.44
2022-09-05T23:03:37.566Z,100043.56
2022-09-05T23:06:06.184Z,100052.38
2022-09-05T23:08:33.505Z,100035.34
2022-09-05T23:11:12.423Z,100039.41
2022-09-05T23:13:40.901Z,100018.94
2022-09-05T23:16:08.907Z,100031.09
2022-09-05T23:18:36.925Z,100030.59
2022-09-05T23:21:06.249Z,100027.00
2022-09-05T23:23:33.368Z,100028.66
2022-09-05T23:26:01.678Z,100024.03
2022-09-05T23:28:29.237Z,100015.09
2022-09-05T23:31:00.585Z,100019.97
2022-09-05T23:33:28.358Z,100021.06
2022-09-05T23:36:02.945Z,100024.97
2022-09-05T23:38:30.309Z,100008.16
2022-09-05T23:41:05.341Z,100021.38
2022-09-05T23:43:32.918Z,100014.69
2022-09-05T23:46:01.154Z,100008.44
2022-09-05T23:48:29.266Z,100010.06
2022-09-05T23:50:56.967Z,100006.13
2022-09-05T23:53:26.238Z,100006.13
2022-09-05T23:55:53.550Z,100006.13
2022-09-05T23:58:20.821Z,100007.75
